Time;durP1;ratioP1;P1;durP2;ratioP2;P2;SDS_P1;SDS_P2;PMS_P1;PMS_P2;Temp;Humidity;BMP_temperature;BMP_pressure;BME280_temperature;BME280_humidity;BME280_pressure;Samples;Min_cycle;Max_cycle;Signal;HPM_P1;HPM_P2
2021/12/07 00:00:22;;;;;;;;;5.75;3.00;;;;;8.99;65.47;101159.03;5012424;28;45348;-91
2021/12/07 00:02:49;;;;;;;;;3.25;2.50;;;;;8.95;66.13;101157.38;5011082;28;45562;-91
2021/12/07 00:05:14;;;;;;;;;3.00;2.50;;;;;8.92;65.79;101162.66;5020365;28;46078;-90
2021/12/07 00:07:42;;;;;;;;;4.25;2.00;;;;;8.93;65.83;101185.38;5017060;28;45384;-95
2021/12/07 00:10:09;;;;;;;;;4.75;2.50;;;;;8.94;65.82;101181.84;5036675;28;45346;-92
2021/12/07 00:12:38;;;;;;;;;2.25;1.00;;;;;8.93;65.75;101182.75;5014635;28;46290;-91
2021/12/07 00:15:05;;;;;;;;;5.00;3.25;;;;;8.94;65.70;101176.59;5016643;28;48022;-91
2021/12/07 00:17:32;;;;;;;;;6.00;3.00;;;;;8.96;65.60;101184.44;5015571;28;45384;-91
2021/12/07 00:19:58;;;;;;;;;1.75;1.75;;;;;8.94;65.36;101176.59;5014075;28;45445;-90
2021/12/07 00:22:25;;;;;;;;;4.50;4.00;;;;;8.91;65.06;101176.69;5011854;28;46635;-90
2021/12/07 00:24:50;;;;;;;;;5.50;3.50;;;;;8.89;65.61;101174.06;5016596;28;47420;-93
2021/12/07 00:27:16;;;;;;;;;5.00;2.50;;;;;8.87;65.73;101172.38;5018020;28;45256;-91
2021/12/07 00:29:42;;;;;;;;;2.00;2.00;;;;;8.84;65.45;101177.69;5036063;28;46115;-92
2021/12/07 00:37:44;;;;;;;;;2.00;2.00;;;;;8.84;64.96;101180.31;5045330;28;45543;-94
2021/12/07 00:40:12;;;;;;;;;2.25;2.25;;;;;8.84;65.37;101196.03;5008952;28;45265;-93
2021/12/07 00:42:38;;;;;;;;;1.00;1.00;;;;;8.86;65.43;101195.13;5021318;28;45166;-93
2021/12/07 00:45:04;;;;;;;;;6.50;2.75;;;;;8.82;64.44;101190.81;5020951;28;47244;-93
2021/12/07 00:47:30;;;;;;;;;3.50;2.25;;;;;8.78;65.04;101203.13;5008511;28;45465;-95
2021/12/07 00:49:55;;;;;;;;;5.25;4.00;;;;;8.78;64.69;101197.88;5020003;28;45451;-94
2021/12/07 00:52:21;;;;;;;;;2.75;2.00;;;;;8.78;65.26;101197.88;5020838;28;47513;-96
2021/12/07 00:54:46;;;;;;;;;3.00;2.25;;;;;8.78;64.96;101195.25;5020464;28;47048;-93
2021/12/07 00:57:12;;;;;;;;;5.25;2.75;;;;;8.76;65.01;101181.31;5017496;28;45320;-92
2021/12/07 00:59:37;;;;;;;;;0.75;0.25;;;;;8.78;64.51;101190.00;5026989;28;45312;-92
2021/12/07 01:02:03;;;;;;;;;5.75;3.00;;;;;8.75;65.22;101182.19;5012109;28;45284;-92
2021/12/07 01:04:29;;;;;;;;;5.25;3.50;;;;;8.76;64.89;101193.53;5029846;28;46449;-92
2021/12/07 01:24:38;;;;;;;;;3.00;1.25;;;;;8.84;64.66;101196.03;5017706;28;45706;-91
2021/12/07 01:26:03;;;;;;;;;1.50;1.00;;;;;8.80;64.10;101202.19;5015001;28;45332;-95
2021/12/07 01:28:34;;;;;;;;;2.50;1.00;;;;;8.82;63.72;101203.03;5013380;28;45236;-94
2021/12/07 01:36:35;;;;;;;;;1.00;0.50;;;;;8.82;64.14;101197.78;5006621;28;45177;-90
2021/12/07 01:44:39;;;;;;;;;0.50;0.50;;;;;8.81;63.93;101207.44;5020458;28;45577;-88
2021/12/07 01:59:31;;;;;;;;;0.50;0.50;;;;;8.72;64.42;101202.34;5020193;28;45224;-87
2021/12/07 02:00:40;;;;;;;;;1.00;1.00;;;;;8.71;64.16;101209.34;5006938;28;45642;-86
2021/12/07 02:03:05;;;;;;;;;2.75;2.00;;;;;8.70;64.69;101220.72;5007733;28;45386;-86
2021/12/07 02:05:32;;;;;;;;;2.75;2.00;;;;;8.71;64.84;101217.22;5006119;28;45442;-87
2021/12/07 02:07:57;;;;;;;;;1.00;1.00;;;;;8.69;64.72;101213.75;4999710;28;45430;-86
2021/12/07 02:10:26;;;;;;;;;2.75;2.00;;;;;8.68;64.93;101212.03;5001054;28;45352;-86
2021/12/07 02:12:55;;;;;;;;;4.00;1.00;;;;;8.66;64.88;101214.69;5019017;28;45257;-86
2021/12/07 02:15:25;;;;;;;;;1.50;1.50;;;;;8.66;65.06;101221.66;5019976;28;45462;-87
2021/12/07 02:17:51;;;;;;;;;1.75;1.75;;;;;8.64;65.03;101218.22;5014105;28;45505;-87
2021/12/07 02:20:19;;;;;;;;;4.25;1.25;;;;;8.66;65.29;101226.91;5012775;28;45837;-96
2021/12/07 02:22:45;;;;;;;;;3.75;2.00;;;;;8.63;64.36;101212.09;5021031;28;45354;-89
2021/12/07 02:25:14;;;;;;;;;1.75;1.75;;;;;8.66;64.99;101221.66;5011370;28;46260;-87
2021/12/07 02:27:40;;;;;;;;;0.00;0.00;;;;;8.61;64.81;101221.75;5015313;28;45508;-88
2021/12/07 02:30:10;;;;;;;;;2.00;1.00;;;;;8.61;64.68;101228.75;5010995;28;45235;-88
2021/12/07 02:32:36;;;;;;;;;1.00;1.00;;;;;8.56;64.98;101223.56;5003872;28;45355;-87
2021/12/07 02:35:02;;;;;;;;;1.25;1.00;;;;;8.53;64.20;101234.06;5018548;28;45389;-87
2021/12/07 02:37:30;;;;;;;;;2.00;2.00;;;;;8.49;64.67;101233.28;5019698;28;46583;-87
2021/12/07 02:39:57;;;;;;;;;2.00;1.00;;;;;8.47;64.79;101235.03;5014676;28;45753;-87
2021/12/07 02:42:24;;;;;;;;;2.25;1.25;;;;;8.46;64.78;101241.19;5014235;28;45210;-87
2021/12/07 02:44:49;;;;;;;;;3.00;1.00;;;;;8.45;64.93;101236.81;5018940;28;45458;-88
2021/12/07 02:47:15;;;;;;;;;2.00;1.00;;;;;8.40;65.27;101226.41;5014110;28;45350;-87
2021/12/07 02:49:41;;;;;;;;;1.00;0.75;;;;;8.39;64.91;101222.06;5005328;28;45503;-96
2021/12/07 02:52:07;;;;;;;;;2.75;1.00;;;;;8.36;65.33;101231.72;5019755;28;45249;-96
2021/12/07 02:54:35;;;;;;;;;5.50;1.75;;;;;8.33;65.08;101228.28;5020959;28;46025;-96
2021/12/07 02:57:02;;;;;;;;;0.00;0.00;;;;;8.35;65.09;101227.38;5035870;28;48399;-96
2021/12/07 03:02:06;;;;;;;;;2.00;2.00;;;;;8.32;65.04;101223.91;5357383;22;45688;-90
2021/12/07 03:04:37;;;;;;;;;1.00;1.00;;;;;8.29;65.19;101223.09;5073853;28;45459;-92
2021/12/07 03:28:25;;;;;;;;;2.50;2.25;;;;;8.03;65.63;101245.28;5050988;28;45353;-89
2021/12/07 03:30:51;;;;;;;;;3.25;1.00;;;;;8.01;65.75;101247.94;5061121;28;45417;-89
2021/12/07 03:33:16;;;;;;;;;3.00;2.00;;;;;8.00;65.70;101254.03;5051198;28;45208;-89
2021/12/07 03:35:41;;;;;;;;;4.50;3.00;;;;;7.98;66.21;101256.69;5054804;28;45234;-90
2021/12/07 03:38:08;;;;;;;;;2.50;2.00;;;;;7.98;65.93;101259.31;5062843;28;46329;-90
2021/12/07 03:40:34;;;;;;;;;2.00;2.00;;;;;8.01;65.82;101266.25;5078308;28;45960;-89
2021/12/07 03:43:02;;;;;;;;;1.75;1.75;;;;;8.02;66.23;101269.75;5049317;28;45165;-90
2021/12/07 03:45:28;;;;;;;;;3.75;2.75;;;;;7.99;65.75;101260.19;5060159;28;46264;-90
2021/12/07 03:47:54;;;;;;;;;2.00;1.25;;;;;7.99;65.77;101249.72;5058126;28;47122;-95
2021/12/07 03:50:21;;;;;;;;;4.00;2.00;;;;;8.03;65.60;101240.94;5042259;28;45188;-96
2021/12/07 03:52:51;;;;;;;;;2.00;2.00;;;;;8.03;65.33;101226.97;5044912;28;45180;-88
2021/12/07 03:55:17;;;;;;;;;5.25;3.50;;;;;8.03;65.95;101246.16;5053646;28;45455;-91
2021/12/07 03:57:43;;;;;;;;;2.50;2.00;;;;;7.96;65.51;101247.13;5061826;28;48087;-91
2021/12/07 04:00:13;;;;;;;;;4.00;1.50;;;;;7.97;65.83;101254.13;5061423;28;45361;-95
2021/12/07 04:02:40;;;;;;;;;2.50;2.50;;;;;7.99;65.60;101252.34;5060874;28;45306;-89
2021/12/07 04:05:15;;;;;;;;;2.25;2.25;;;;;7.98;66.07;101245.34;5051804;28;45501;-86
2021/12/07 04:07:42;;;;;;;;;5.25;2.50;;;;;7.95;66.01;101227.94;5059815;28;45577;-86
2021/12/07 04:10:10;;;;;;;;;1.50;1.00;;;;;7.94;66.02;101228.84;5062393;28;45769;-87
2021/12/07 04:12:36;;;;;;;;;5.50;2.50;;;;;7.90;65.79;101221.06;5046500;28;45653;-87
2021/12/07 04:15:06;;;;;;;;;4.00;3.00;;;;;7.86;65.37;101215.84;5053477;28;45280;-89
2021/12/07 04:17:32;;;;;;;;;5.00;2.00;;;;;7.90;65.91;101224.53;5060513;28;47441;-89
2021/12/07 04:19:57;;;;;;;;;3.50;2.75;;;;;7.86;65.83;101225.44;5061866;28;45418;-89
2021/12/07 04:22:23;;;;;;;;;1.75;1.00;;;;;7.85;65.58;101244.69;5048107;28;45314;-89
2021/12/07 04:24:48;;;;;;;;;2.50;2.00;;;;;7.82;66.17;101245.59;5061930;28;45413;-89
2021/12/07 04:27:14;;;;;;;;;1.25;1.25;;;;;7.80;66.04;101243.88;5060128;28;45417;-91
2021/12/07 04:29:39;;;;;;;;;2.50;2.50;;;;;7.79;65.87;101227.28;5048479;28;45506;-85
2021/12/07 04:32:05;;;;;;;;;5.00;3.00;;;;;7.80;65.48;101236.03;5051066;28;45544;-85
2021/12/07 04:34:31;;;;;;;;;7.00;3.50;;;;;7.75;65.49;101246.56;5057634;28;45524;-85
2021/12/07 04:36:56;;;;;;;;;5.25;1.75;;;;;7.75;66.17;101241.31;5055478;28;46597;-87
2021/12/07 04:39:22;;;;;;;;;3.25;2.00;;;;;7.72;65.43;101244.84;5077409;28;45200;-90
2021/12/07 04:41:49;;;;;;;;;3.00;2.00;;;;;7.62;66.25;101236.25;5053483;28;45220;-88
2021/12/07 04:44:14;;;;;;;;;3.00;2.00;;;;;7.62;65.97;101249.31;5057396;28;45393;-93
2021/12/07 04:46:48;;;;;;;;;3.00;2.00;;;;;7.60;65.78;101238.00;5076119;28;46939;-87
2021/12/07 04:57:39;;;;;;;;;4.50;2.75;;;;;7.57;66.08;101238.03;5055064;28;45334;-93
2021/12/07 05:00:14;;;;;;;;;2.75;2.00;;;;;7.56;66.09;101236.28;5050846;28;45260;-91
2021/12/07 05:02:42;;;;;;;;;7.50;4.25;;;;;7.55;66.10;101239.81;5047462;28;45267;-90
2021/12/07 05:05:09;;;;;;;;;3.00;2.00;;;;;7.57;65.90;101245.00;5061413;28;45515;-91
2021/12/07 05:07:40;;;;;;;;;3.00;2.25;;;;;7.57;66.16;101237.16;5058287;28;45591;-90
2021/12/07 05:39:42;;;;;;;;;5.00;5.00;;;;;7.37;66.56;101240.88;5044557;28;45444;-86
2021/12/07 05:42:08;;;;;;;;;6.25;5.00;;;;;7.35;66.67;101246.16;5059422;28;45365;-85
2021/12/07 05:44:34;;;;;;;;;7.50;6.00;;;;;7.35;66.59;101242.66;5060528;28;45411;-85
2021/12/07 05:46:59;;;;;;;;;13.75;6.00;;;;;7.39;66.38;101245.22;5047206;28;45488;-85
2021/12/07 05:49:25;;;;;;;;;19.75;14.25;;;;;7.36;66.99;101247.84;5060344;28;45368;-90
2021/12/07 05:51:51;;;;;;;;;7.75;7.50;;;;;7.36;66.36;101240.00;5059209;28;45337;-91
2021/12/07 05:54:16;;;;;;;;;11.00;8.00;;;;;7.35;66.28;101235.69;5053046;28;45233;-87
2021/12/07 05:56:42;;;;;;;;;14.00;11.25;;;;;7.33;66.95;101245.31;5042840;28;46189;-88
2021/12/07 05:59:07;;;;;;;;;3.75;1.00;;;;;7.33;66.61;101250.53;5057915;28;45569;-89
2021/12/07 06:01:32;;;;;;;;;12.75;7.25;;;;;7.30;66.21;101258.41;5050436;28;45243;-91
2021/12/07 06:03:58;;;;;;;;;9.50;7.25;;;;;7.31;67.05;101260.13;5053767;28;45263;-91
2021/12/07 06:06:23;;;;;;;;;14.75;10.00;;;;;7.27;66.69;101255.81;5058140;28;47440;-90
2021/12/07 06:08:48;;;;;;;;;10.00;8.25;;;;;7.23;66.93;101261.97;5060567;28;46698;-88
2021/12/07 06:11:14;;;;;;;;;11.50;8.50;;;;;7.22;66.86;101253.25;5043925;28;45394;-88
2021/12/07 06:13:39;;;;;;;;;9.50;8.50;;;;;7.24;67.12;101258.44;5040135;28;45352;-91
2021/12/07 06:16:07;;;;;;;;;11.25;9.00;;;;;7.24;67.10;101251.47;5047529;28;45251;-90
2021/12/07 06:18:34;;;;;;;;;7.25;6.25;;;;;7.22;66.63;101245.41;5051617;28;45496;-87
2021/12/07 06:20:59;;;;;;;;;10.25;10.25;;;;;7.20;66.64;101240.19;5058008;28;45648;-88
2021/12/07 06:23:25;;;;;;;;;11.50;8.25;;;;;7.22;66.51;101234.94;5059548;28;45424;-89
2021/12/07 06:25:51;;;;;;;;;14.00;9.00;;;;;7.17;67.29;101211.47;5054911;28;45270;-82
2021/12/07 06:28:17;;;;;;;;;12.75;11.50;;;;;7.20;66.74;101219.28;5057127;28;45406;-85
2021/12/07 06:30:44;;;;;;;;;6.50;6.25;;;;;7.15;66.92;101215.84;5059812;28;45220;-86
2021/12/07 06:33:10;;;;;;;;;9.00;9.00;;;;;7.15;66.62;101209.75;5053886;28;45342;-83
2021/12/07 06:35:36;;;;;;;;;10.00;9.25;;;;;7.16;67.01;101220.19;5050934;28;45627;-84
2021/12/07 06:38:01;;;;;;;;;15.50;13.25;;;;;7.15;66.91;101218.47;5064975;28;48386;-84
2021/12/07 06:40:26;;;;;;;;;14.25;12.00;;;;;7.16;67.21;101216.72;5075420;28;45986;-84
2021/12/07 06:42:54;;;;;;;;;19.50;18.00;;;;;7.12;67.43;101202.81;5052528;28;46039;-85
2021/12/07 06:45:19;;;;;;;;;20.50;18.50;;;;;7.14;67.55;101200.16;5051795;28;45306;-84
2021/12/07 06:47:45;;;;;;;;;21.75;16.25;;;;;7.16;67.53;101196.66;5059435;28;46445;-84
2021/12/07 06:50:11;;;;;;;;;20.00;17.50;;;;;7.18;67.74;101202.75;5065928;28;45501;-84
2021/12/07 06:52:37;;;;;;;;;22.75;17.50;;;;;7.19;67.53;101195.75;5050383;28;45536;-84
2021/12/07 06:55:04;;;;;;;;;17.75;14.00;;;;;7.20;67.61;101200.97;5058663;28;46794;-84
2021/12/07 06:57:29;;;;;;;;;20.25;14.50;;;;;7.22;67.73;101194.84;5052451;28;47395;-83
2021/12/07 06:59:55;;;;;;;;;21.00;18.75;;;;;7.26;67.61;101186.13;5060836;28;45148;-86
2021/12/07 07:02:20;;;;;;;;;18.00;14.50;;;;;7.28;67.86;101192.19;5058994;28;45132;-82
2021/12/07 07:04:46;;;;;;;;;17.00;16.50;;;;;7.28;67.60;101173.88;5054407;28;45527;-83
2021/12/07 07:07:12;;;;;;;;;17.00;12.75;;;;;7.31;67.88;101173.81;5051257;28;45398;-83
2021/12/07 07:09:37;;;;;;;;;16.25;13.25;;;;;7.25;67.70;101177.41;5066276;28;45462;-83
2021/12/07 07:12:03;;;;;;;;;17.00;15.25;;;;;7.26;67.69;101171.25;5074595;28;45501;-83
2021/12/07 07:14:29;;;;;;;;;21.00;13.75;;;;;7.29;67.54;101170.38;5063375;28;46130;-83
2021/12/07 07:16:54;;;;;;;;;16.25;15.00;;;;;7.24;67.53;101159.09;5049430;28;45405;-83
2021/12/07 07:19:20;;;;;;;;;19.00;15.00;;;;;7.15;67.70;101160.94;5064290;28;45319;-83
2021/12/07 07:21:45;;;;;;;;;20.25;15.75;;;;;7.15;68.26;101158.34;5062493;28;45516;-84
2021/12/07 07:24:10;;;;;;;;;21.00;19.75;;;;;7.16;67.90;101157.44;5051694;28;46856;-81
2021/12/07 07:26:36;;;;;;;;;22.50;18.50;;;;;7.22;68.03;101153.03;5056722;28;45248;-81
2021/12/07 07:29:02;;;;;;;;;16.75;16.75;;;;;7.22;68.11;101150.41;5048544;28;45418;-81
2021/12/07 07:31:28;;;;;;;;;22.50;18.25;;;;;7.19;67.76;101140.84;5049963;28;45280;-81
2021/12/07 07:33:54;;;;;;;;;20.50;19.00;;;;;7.13;68.11;101140.94;5063682;28;45227;-81
2021/12/07 07:36:21;;;;;;;;;22.00;19.50;;;;;7.13;68.19;101133.97;5053018;28;45379;-81
2021/12/07 07:38:46;;;;;;;;;23.50;18.50;;;;;7.14;68.25;101133.06;5064239;28;45532;-81
2021/12/07 07:41:11;;;;;;;;;25.00;21.25;;;;;7.12;68.28;101116.53;5064200;28;45283;-81
2021/12/07 07:43:37;;;;;;;;;25.25;22.75;;;;;7.17;68.71;101119.97;5063350;28;46126;-81
2021/12/07 07:46:03;;;;;;;;;25.50;18.75;;;;;7.22;68.24;101116.41;5050311;28;45675;-81
2021/12/07 07:48:28;;;;;;;;;21.50;16.50;;;;;7.24;68.38;101104.19;5049008;28;45509;-81
2021/12/07 07:50:54;;;;;;;;;20.25;17.75;;;;;7.27;68.56;101105.03;5058322;28;45346;-81
2021/12/07 07:53:21;;;;;;;;;22.00;17.75;;;;;7.33;68.16;101098.84;5046151;28;45539;-82
2021/12/07 07:55:46;;;;;;;;;23.00;20.25;;;;;7.31;67.16;101104.09;5051491;28;45591;-81
2021/12/07 07:58:12;;;;;;;;;23.00;21.50;;;;;7.18;67.87;101110.38;5058074;28;45258;-81
2021/12/07 08:00:41;;;;;;;;;24.75;22.25;;;;;7.17;67.94;101104.28;5054225;28;45220;-83
2021/12/07 08:03:07;;;;;;;;;29.25;22.75;;;;;7.18;67.66;101110.38;5055521;28;45576;-84
2021/12/07 08:05:33;;;;;;;;;29.00;23.50;;;;;7.12;68.40;101094.75;5051469;28;46540;-81
2021/12/07 08:07:58;;;;;;;;;22.00;18.00;;;;;7.13;67.99;101086.91;5062007;28;45438;-81
2021/12/07 08:10:29;;;;;;;;;18.50;17.50;;;;;7.08;67.80;101079.13;5053539;28;45362;-81
2021/12/07 08:13:03;;;;;;;;;23.50;20.50;;;;;7.02;68.26;101073.97;5045883;28;45413;-81
2021/12/07 08:15:31;;;;;;;;;21.50;19.50;;;;;6.95;68.74;101074.94;5058507;28;45403;-81
2021/12/07 08:17:57;;;;;;;;;20.50;18.50;;;;;6.90;68.79;101069.75;5051875;28;45912;-81
2021/12/07 08:20:24;;;;;;;;;14.75;13.00;;;;;6.93;68.72;101072.34;5062190;28;45360;-81
2021/12/07 08:22:49;;;;;;;;;19.00;16.25;;;;;6.96;68.67;101066.22;5045221;28;45472;-81
2021/12/07 08:25:15;;;;;;;;;15.00;12.75;;;;;6.96;69.02;101067.06;5061774;28;46638;-81
2021/12/07 08:27:40;;;;;;;;;24.25;18.50;;;;;7.03;68.80;101067.88;5061618;28;45337;-81
2021/12/07 08:30:09;;;;;;;;;21.75;19.00;;;;;7.04;68.57;101063.47;5049557;28;45379;-81
2021/12/07 08:32:35;;;;;;;;;14.50;13.75;;;;;7.03;68.51;101052.19;5046041;28;45291;-81
2021/12/07 08:35:00;;;;;;;;;13.75;12.50;;;;;7.04;68.91;101045.19;5068115;28;46940;-81
2021/12/07 08:37:25;;;;;;;;;21.25;19.75;;;;;7.06;68.42;101038.22;5059639;28;45180;-81
2021/12/07 08:39:51;;;;;;;;;23.50;16.00;;;;;7.06;68.77;101053.88;5048087;28;45169;-81
2021/12/07 08:42:17;;;;;;;;;18.50;17.25;;;;;7.07;68.52;101042.53;5050751;28;47371;-81
2021/12/07 08:44:43;;;;;;;;;21.25;19.00;;;;;7.14;68.68;101036.34;5054303;28;45417;-81
2021/12/07 08:47:08;;;;;;;;;20.00;17.75;;;;;7.14;68.76;101031.09;5055028;28;46101;-81
2021/12/07 08:49:34;;;;;;;;;21.25;17.00;;;;;7.15;68.83;101031.97;5048682;28;45445;-81
2021/12/07 08:52:00;;;;;;;;;16.75;15.50;;;;;7.12;68.88;101032.00;5047486;28;45261;-81
2021/12/07 08:59:56;;;;;;;;;23.00;14.25;;;;;7.21;68.61;101034.50;5042851;28;45293;-81
2021/12/07 09:02:25;;;;;;;;;14.75;14.00;;;;;7.25;68.78;101023.13;5059754;28;45278;-81
2021/12/07 09:04:53;;;;;;;;;22.00;16.75;;;;;7.29;69.30;101003.00;5055655;28;46821;-81
2021/12/07 09:07:20;;;;;;;;;14.50;13.50;;;;;7.34;68.54;100985.50;5061207;28;45391;-81
2021/12/07 09:09:46;;;;;;;;;18.25;15.50;;;;;7.39;68.34;100983.69;5061005;27;45297;-81
2021/12/07 09:12:14;;;;;;;;;19.50;17.25;;;;;7.30;68.79;100968.16;5060975;28;45222;-81
2021/12/07 09:14:42;;;;;;;;;21.25;15.50;;;;;7.26;68.82;100972.53;5060610;28;45315;-81
2021/12/07 09:17:09;;;;;;;;;29.25;24.00;;;;;7.30;69.23;100958.56;5059941;28;45403;-80
2021/12/07 09:19:34;;;;;;;;;22.25;16.25;;;;;7.31;68.73;100954.16;5051827;28;45405;-81
2021/12/07 09:22:00;;;;;;;;;22.50;17.00;;;;;7.31;69.22;100946.31;5057706;28;45270;-81
2021/12/07 09:24:25;;;;;;;;;16.00;14.25;;;;;7.27;69.27;100952.50;5057681;28;46383;-81
2021/12/07 09:26:51;;;;;;;;;18.00;16.50;;;;;7.28;69.05;100944.66;5050639;28;45382;-81
2021/12/07 09:29:16;;;;;;;;;24.00;17.75;;;;;7.22;69.18;100938.63;5050227;28;45203;-81
2021/12/07 09:31:42;;;;;;;;;10.75;10.75;;;;;7.28;69.08;100928.09;5059944;28;45476;-81
2021/12/07 09:34:09;;;;;;;;;18.00;15.50;;;;;7.31;68.81;100935.84;5060104;28;45253;-81
2021/12/07 09:36:35;;;;;;;;;14.75;13.50;;;;;7.22;69.20;100931.66;5052096;28;45491;-81
2021/12/07 09:39:02;;;;;;;;;14.00;11.00;;;;;7.17;69.16;100920.41;5051217;28;45160;-81
2021/12/07 09:41:27;;;;;;;;;15.25;13.25;;;;;7.20;69.41;100926.47;5047863;28;47104;-81
2021/12/07 09:43:54;;;;;;;;;17.50;13.00;;;;;7.25;68.94;100922.91;5044283;28;45568;-81
2021/12/07 09:46:19;;;;;;;;;15.50;13.00;;;;;7.27;69.59;100922.00;5047370;28;45342;-81
2021/12/07 09:48:46;;;;;;;;;19.75;13.00;;;;;7.30;69.27;100921.94;5043467;28;45287;-81
2021/12/07 09:51:16;;;;;;;;;12.25;11.75;;;;;7.31;69.50;100923.66;5041532;28;45437;-81
2021/12/07 09:53:42;;;;;;;;;14.25;12.50;;;;;7.39;69.15;100925.28;5058814;28;45518;-81
2021/12/07 09:56:08;;;;;;;;;15.00;12.50;;;;;7.46;69.44;100920.84;5045925;28;45419;-82
2021/12/07 09:58:35;;;;;;;;;11.75;11.75;;;;;7.49;69.15;100905.94;5051141;28;45334;-81
2021/12/07 10:01:01;;;;;;;;;15.00;13.25;;;;;7.47;69.22;100902.50;5057063;28;45465;-81
2021/12/07 10:03:26;;;;;;;;;14.50;13.75;;;;;7.39;69.16;100913.06;5051395;28;45286;-81
2021/12/07 10:05:52;;;;;;;;;13.75;10.75;;;;;7.37;69.63;100917.47;5075983;28;45452;-82
2021/12/07 10:08:18;;;;;;;;;17.00;11.00;;;;;7.41;69.60;100905.19;5059419;28;45429;-81
2021/12/07 10:10:47;;;;;;;;;10.25;10.25;;;;;7.46;69.69;100915.59;5056775;28;45296;-81
2021/12/07 10:13:15;;;;;;;;;22.25;15.00;;;;;7.47;69.69;100910.34;5051897;28;45441;-81
2021/12/07 10:15:41;;;;;;;;;13.00;11.25;;;;;7.55;69.70;100912.81;5048785;28;45421;-81
2021/12/07 10:18:09;;;;;;;;;12.50;10.75;;;;;7.55;70.00;100902.34;5059823;28;45213;-81
2021/12/07 10:20:41;;;;;;;;;10.00;10.00;;;;;7.57;69.81;100884.00;5059328;28;45362;-81
2021/12/07 10:23:16;;;;;;;;;14.50;12.50;;;;;7.63;69.47;100874.28;5039406;28;46596;-81
2021/12/07 10:25:46;;;;;;;;;14.50;12.25;;;;;7.59;69.43;100867.41;5054480;28;45740;-81
2021/12/07 10:28:36;;;;;;;;;16.00;10.50;;;;;7.64;70.22;100843.75;5048185;28;45459;-81
2021/12/07 10:31:24;;;;;;;;;14.00;12.50;;;;;7.65;69.78;100829.81;5046823;28;45343;-81
2021/12/07 10:33:54;;;;;;;;;17.25;12.00;;;;;7.70;70.40;100827.09;5057718;28;48431;-81
2021/12/07 10:36:22;;;;;;;;;19.00;14.00;;;;;7.73;70.17;100827.03;5045725;28;45327;-81
2021/12/07 10:38:55;;;;;;;;;15.75;12.75;;;;;7.77;70.48;100815.63;5058534;28;45256;-81
2021/12/07 10:41:23;;;;;;;;;16.00;14.00;;;;;7.84;70.40;100806.75;5059752;28;45337;-81
2021/12/07 10:44:00;;;;;;;;;19.75;16.50;;;;;7.90;70.23;100804.91;5059733;28;46280;-81
2021/12/07 10:46:30;;;;;;;;;13.00;12.75;;;;;7.92;69.99;100784.78;5049263;28;45718;-81
2021/12/07 10:49:20;;;;;;;;;17.00;15.00;;;;;8.01;69.94;100784.59;5049870;28;45444;-81
2021/12/07 10:51:57;;;;;;;;;14.25;12.50;;;;;8.04;69.89;100775.81;5046473;28;45238;-81
2021/12/07 10:54:23;;;;;;;;;13.75;13.75;;;;;8.05;70.18;100767.06;5059389;28;45427;-81
2021/12/07 10:56:50;;;;;;;;;21.75;16.50;;;;;8.11;69.73;100756.44;5059029;28;45416;-81
2021/12/07 10:59:16;;;;;;;;;18.25;18.00;;;;;8.17;69.83;100747.59;5046579;28;45311;-81
2021/12/07 11:01:49;;;;;;;;;22.75;18.25;;;;;8.18;69.89;100729.22;5053745;28;45423;-81
2021/12/07 11:04:23;;;;;;;;;17.25;15.75;;;;;8.25;70.04;100716.84;5049377;28;45295;-81
2021/12/07 11:07:20;;;;;;;;;15.25;15.00;;;;;8.31;69.64;100714.09;5056959;28;45314;-81
2021/12/07 11:12:35;;;;;;;;;14.50;13.50;;;;;8.39;69.56;100689.47;5047263;28;45591;-81
2021/12/07 11:15:01;;;;;;;;;17.00;13.25;;;;;8.45;69.09;100678.84;5051496;28;46259;-82
2021/12/07 11:17:33;;;;;;;;;18.00;16.00;;;;;8.49;69.43;100659.53;5051123;28;45509;-81
2021/12/07 11:20:01;;;;;;;;;13.00;9.00;;;;;8.55;69.43;100640.16;5049415;28;45553;-82
2021/12/07 11:22:31;;;;;;;;;9.00;9.00;;;;;8.65;69.41;100646.06;5039360;28;45418;-82
2021/12/07 11:24:58;;;;;;;;;17.00;12.25;;;;;8.68;69.10;100629.41;5057623;28;46278;-82
2021/12/07 11:30:19;;;;;;;;;16.00;10.00;;;;;8.73;69.39;100596.94;5047517;28;45433;-81
2021/12/07 11:32:55;;;;;;;;;8.00;8.00;;;;;8.78;69.30;100589.81;5056114;28;45406;-81
2021/12/07 11:35:34;;;;;;;;;16.25;9.00;;;;;8.89;68.80;100591.25;5065108;28;47970;-81
2021/12/07 11:38:05;;;;;;;;;10.25;7.50;;;;;8.92;68.91;100574.56;5043723;28;46007;-82
2021/12/07 11:40:37;;;;;;;;;34.25;28.50;;;;;8.92;68.60;100561.47;5054606;28;45225;-82
2021/12/07 11:43:15;;;;;;;;;9.00;7.25;;;;;8.94;68.49;100557.06;5047945;28;46661;-82
2021/12/07 11:45:43;;;;;;;;;9.75;8.75;;;;;9.02;68.86;100548.94;5050414;28;45478;-81
2021/12/07 11:48:09;;;;;;;;;7.25;4.50;;;;;9.04;68.53;100541.94;5058892;28;45331;-82
2021/12/07 11:50:49;;;;;;;;;10.00;9.00;;;;;9.06;68.45;100534.88;5061516;28;45280;-81
2021/12/07 11:53:19;;;;;;;;;21.25;16.50;;;;;9.08;68.58;100527.81;5060913;28;45371;-81
2021/12/07 11:55:47;;;;;;;;;8.50;8.25;;;;;9.07;67.99;100512.97;5057336;28;45569;-82
2021/12/07 11:58:14;;;;;;;;;8.75;8.75;;;;;9.06;68.45;100506.88;5051509;28;45413;-81
2021/12/07 12:00:46;;;;;;;;;10.75;8.25;;;;;9.09;68.36;100495.44;5044450;28;45426;-81
2021/12/07 12:03:15;;;;;;;;;12.50;7.00;;;;;9.12;67.69;100487.47;5058056;28;45417;-81
2021/12/07 12:05:44;;;;;;;;;10.50;8.00;;;;;9.10;68.25;100470.94;5062121;28;46447;-81
2021/12/07 12:08:10;;;;;;;;;8.00;7.00;;;;;9.16;68.99;100465.47;5062050;28;45445;-82
2021/12/07 12:10:39;;;;;;;;;9.25;8.50;;;;;9.22;68.10;100454.81;5059388;28;45267;-81
2021/12/07 12:13:19;;;;;;;;;8.75;8.75;;;;;9.23;68.05;100458.31;5059415;28;45213;-82
2021/12/07 12:16:03;;;;;;;;;7.50;7.25;;;;;9.21;68.22;100439.16;5047310;28;45341;-82
2021/12/07 12:18:41;;;;;;;;;7.00;6.25;;;;;9.28;68.01;100439.78;5042560;28;45885;-81
2021/12/07 12:21:15;;;;;;;;;9.25;8.50;;;;;9.34;68.14;100439.59;5062182;28;45410;-81
2021/12/07 12:23:59;;;;;;;;;7.75;6.00;;;;;9.36;67.79;100416.78;5077316;28;46053;-81
2021/12/07 12:26:27;;;;;;;;;7.25;4.00;;;;;9.34;68.08;100408.97;5058643;28;48097;-82
2021/12/07 12:28:54;;;;;;;;;6.75;5.50;;;;;9.34;67.74;100397.63;5059868;28;45243;-81
2021/12/07 12:31:43;;;;;;;;;6.00;6.00;;;;;9.39;67.82;100394.84;5054715;28;45443;-81
2021/12/07 12:34:19;;;;;;;;;5.25;5.25;;;;;9.43;67.72;100388.59;5058466;28;47036;-81
2021/12/07 12:37:16;;;;;;;;;9.00;6.00;;;;;9.48;67.82;100380.56;5062091;28;46800;-81
2021/12/07 12:39:55;;;;;;;;;8.75;6.00;;;;;9.52;67.42;100355.94;5053453;28;45774;-81
2021/12/07 12:42:36;;;;;;;;;5.00;5.00;;;;;9.52;66.96;100350.69;5045757;28;45335;-81
2021/12/07 12:45:19;;;;;;;;;5.00;5.00;;;;;9.49;67.46;100330.66;5055216;28;45223;-81
2021/12/07 12:47:46;;;;;;;;;5.50;4.00;;;;;9.50;67.35;100324.50;5069492;28;48408;-82
2021/12/07 12:50:30;;;;;;;;;7.50;5.00;;;;;9.57;67.40;100315.50;5048293;28;46069;-81
2021/12/07 12:53:06;;;;;;;;;9.50;7.00;;;;;9.62;67.38;100299.59;5058665;28;45302;-81
2021/12/07 12:55:40;;;;;;;;;7.00;5.75;;;;;9.66;66.62;100289.84;5057793;28;45454;-81
2021/12/07 12:58:29;;;;;;;;;6.25;5.50;;;;;9.68;67.29;100270.50;5049970;28;47702;-81
2021/12/07 13:01:10;;;;;;;;;6.00;6.00;;;;;9.73;66.83;100266.88;5059403;28;45424;-82
2021/12/07 13:03:42;;;;;;;;;7.50;5.00;;;;;9.73;66.70;100272.94;5052100;28;45505;-82
2021/12/07 13:06:08;;;;;;;;;6.00;4.25;;;;;9.72;65.96;100259.91;5061049;28;45338;-82
2021/12/07 13:09:02;;;;;;;;;5.50;5.00;;;;;9.72;66.53;100254.66;5058464;28;47099;-82
2021/12/07 13:11:43;;;;;;;;;6.00;5.25;;;;;9.71;66.71;100277.41;5055203;28;45831;-82
2021/12/07 13:14:29;;;;;;;;;6.50;4.25;;;;;9.72;66.22;100255.50;5056711;28;45275;-82
2021/12/07 13:17:01;;;;;;;;;3.25;2.50;;;;;9.74;66.46;100248.44;5057310;28;45277;-81
2021/12/07 13:19:28;;;;;;;;;7.50;5.50;;;;;9.77;66.17;100239.59;5048405;28;45870;-82
2021/12/07 13:21:56;;;;;;;;;9.50;6.50;;;;;9.76;65.96;100224.75;5056850;28;45295;-82
2021/12/07 13:24:34;;;;;;;;;6.75;6.00;;;;;9.80;66.45;100231.59;5059778;28;45222;-82
2021/12/07 13:27:09;;;;;;;;;4.50;4.50;;;;;9.79;66.11;100227.25;5058722;28;45458;-81
2021/12/07 13:29:36;;;;;;;;;5.25;5.00;;;;;9.81;66.11;100222.81;5060865;28;46564;-81